createdAt,value
2023-04-04T00:00:18.896Z,1.40
2023-04-04T00:02:56.004Z,1.30
2023-04-04T00:05:26.164Z,1.30
2023-04-04T00:07:55.481Z,1.30
2023-04-04T00:10:26.414Z,1.30
2023-04-04T00:12:56.498Z,1.30
2023-04-04T00:15:26.510Z,1.40
2023-04-04T00:18:01.338Z,1.30
2023-04-04T00:20:30.801Z,1.30
2023-04-04T00:22:59.925Z,1.30
2023-04-04T00:25:29.529Z,1.30
2023-04-04T00:28:00.917Z,1.30
2023-04-04T00:30:32.057Z,1.30
2023-04-04T00:33:02.100Z,1.30
2023-04-04T00:35:31.304Z,1.30
2023-04-04T00:38:01.430Z,1.20
2023-04-04T00:40:32.140Z,1.30
2023-04-04T00:43:01.944Z,1.20
2023-04-04T00:45:31.405Z,1.20
2023-04-04T00:48:02.870Z,1.20
2023-04-04T00:50:34.398Z,1.20
2023-04-04T00:53:02.657Z,1.10
2023-04-04T00:55:33.678Z,1.20
2023-04-04T00:58:04.682Z,1.20
2023-04-04T01:00:35.228Z,1.10
2023-04-04T01:03:05.981Z,1.10
2023-04-04T01:05:34.382Z,1.10
2023-04-04T01:08:03.594Z,1.10
2023-04-04T01:10:35.671Z,1.10
2023-04-04T01:13:04.526Z,1.10
2023-04-04T01:15:32.759Z,1.20
2023-04-04T01:18:05.342Z,1.20
2023-04-04T01:20:38.304Z,1.20
2023-04-04T01:23:07.796Z,1.20
2023-04-04T01:25:39.096Z,1.10
2023-04-04T01:28:07.305Z,1.00
2023-04-04T01:30:43.455Z,1.10
2023-04-04T01:33:22.099Z,1.10
2023-04-04T01:36:02.598Z,1.10
2023-04-04T01:38:40.409Z,1.10
2023-04-04T01:41:12.299Z,1.10
2023-04-04T01:43:41.745Z,1.10
2023-04-04T01:46:12.988Z,1.10
2023-04-04T01:48:41.156Z,1.20
2023-04-04T01:51:09.494Z,1.10
2023-04-04T01:53:41.056Z,1.10
2023-04-04T01:56:13.246Z,1.10
2023-04-04T01:58:41.666Z,1.00
2023-04-04T02:01:10.375Z,1.00
2023-04-04T02:03:40.021Z,0.90
2023-04-04T02:06:22.784Z,1.00
2023-04-04T02:08:51.107Z,1.00
2023-04-04T02:11:23.055Z,1.00
2023-04-04T02:13:51.597Z,1.00
2023-04-04T02:16:19.831Z,0.90
2023-04-04T02:18:48.264Z,0.90
2023-04-04T02:21:16.392Z,0.90
2023-04-04T02:23:44.668Z,0.80
2023-04-04T02:26:12.888Z,0.80
2023-04-04T02:28:42.505Z,0.80
2023-04-04T02:31:10.652Z,0.70
2023-04-04T02:33:38.909Z,0.70
2023-04-04T02:36:07.601Z,0.60
2023-04-04T02:38:36.526Z,0.50
2023-04-04T02:41:04.759Z,0.50
2023-04-04T02:43:32.923Z,0.60
2023-04-04T02:46:14.382Z,0.50
2023-04-04T02:48:49.606Z,0.50
2023-04-04T02:51:17.724Z,0.50
2023-04-04T02:53:46.963Z,0.50
2023-04-04T02:56:15.460Z,0.50
2023-04-04T02:58:43.625Z,0.30
2023-04-04T03:01:13.561Z,0.30
2023-04-04T03:03:42.186Z,0.30
2023-04-04T03:06:10.434Z,0.20
2023-04-04T03:08:45.940Z,0.20
2023-04-04T03:11:14.485Z,0.10
2023-04-04T03:13:47.361Z,0.10
2023-04-04T03:16:22.687Z,0.10
2023-04-04T03:18:51.962Z,0.10
2023-04-04T03:21:20.193Z,0.10
2023-04-04T03:23:48.483Z,0.10
2023-04-04T03:26:17.682Z,0.00
2023-04-04T03:28:46.126Z,0.10
2023-04-04T03:31:15.559Z,0.10
2023-04-04T03:33:45.315Z,0.10
2023-04-04T03:36:14.803Z,0.00
2023-04-04T03:38:47.277Z,0.00
2023-04-04T03:41:17.980Z,-0.10
2023-04-04T03:43:46.494Z,-0.20
2023-04-04T03:46:16.544Z,-0.20
2023-04-04T03:48:48.109Z,-0.30
2023-04-04T03:51:16.244Z,-0.30
2023-04-04T03:53:44.368Z,-0.30
2023-04-04T03:56:12.571Z,-0.30
2023-04-04T03:58:42.363Z,-0.30
2023-04-04T04:01:11.996Z,-0.30
2023-04-04T04:03:41.150Z,-0.40
2023-04-04T04:06:10.792Z,-0.40
2023-04-04T04:08:38.956Z,-0.40
2023-04-04T04:11:09.125Z,-0.50
2023-04-04T04:13:37.918Z,-0.50
2023-04-04T04:16:07.952Z,-0.60
2023-04-04T04:18:37.374Z,-0.60
2023-04-04T04:21:06.576Z,-0.60
2023-04-04T04:23:36.160Z,-0.60
2023-04-04T04:26:04.678Z,-0.60
2023-04-04T04:28:34.284Z,-0.60
2023-04-04T04:31:06.944Z,-0.60
2023-04-04T04:33:35.417Z,-0.60
2023-04-04T04:36:04.040Z,-0.60
2023-04-04T04:38:32.482Z,-0.60
2023-04-04T04:41:04.563Z,-0.60
2023-04-04T04:43:32.757Z,-0.60
2023-04-04T04:46:04.389Z,-0.60
2023-04-04T04:48:33.283Z,-0.60
2023-04-04T04:51:04.374Z,-0.60
2023-04-04T04:53:32.952Z,-0.70
2023-04-04T04:56:04.077Z,-0.60
2023-04-04T04:58:32.322Z,-0.60
2023-04-04T05:01:01.153Z,-0.60
2023-04-04T05:03:33.301Z,-0.60
2023-04-04T05:06:01.845Z,-0.60
2023-04-04T05:08:31.255Z,-0.60
2023-04-04T05:10:59.429Z,-0.50
2023-04-04T05:13:29.034Z,-0.50
2023-04-04T05:15:58.164Z,-0.40
2023-04-04T05:18:27.592Z,-0.40
2023-04-04T05:20:57.041Z,-0.40
2023-04-04T05:23:25.295Z,-0.40
2023-04-04T05:25:56.476Z,-0.40
2023-04-04T05:32:12.567Z,-0.40
2023-04-04T05:34:40.647Z,-0.40
2023-04-04T05:37:11.056Z,-0.30
2023-04-04T05:40:43.048Z,-0.20
2023-04-04T05:43:17.381Z,-0.30
2023-04-04T05:45:54.319Z,-0.20
2023-04-04T05:48:24.144Z,-0.20
2023-04-04T05:51:04.952Z,-0.10
2023-04-04T05:54:24.233Z,0.00
2023-04-04T05:56:55.330Z,0.10
2023-04-04T05:59:24.729Z,0.10
2023-04-04T06:01:53.379Z,0.30
2023-04-04T06:04:25.204Z,0.40
2023-04-04T06:06:56.770Z,0.50
2023-04-04T06:09:25.163Z,0.60
2023-04-04T06:11:54.755Z,0.50
2023-04-04T06:14:28.299Z,0.50
2023-04-04T06:19:57.502Z,0.70
2023-04-04T06:22:35.032Z,0.70
2023-04-04T06:25:14.877Z,0.80
2023-04-04T06:27:49.263Z,0.90
2023-04-04T06:30:31.603Z,1.10
2023-04-04T06:33:00.177Z,1.10
2023-04-04T06:35:29.794Z,1.10
2023-04-04T06:37:59.426Z,1.20
2023-04-04T06:40:29.469Z,1.30
2023-04-04T06:43:00.971Z,1.40
2023-04-04T06:45:34.585Z,1.50
2023-04-04T06:48:03.745Z,1.60
2023-04-04T06:50:36.890Z,1.90
2023-04-04T06:56:36.343Z,1.80
2023-04-04T06:59:04.716Z,1.80
2023-04-04T07:01:34.968Z,2.10
2023-04-04T07:04:04.681Z,2.20
2023-04-04T07:06:34.693Z,2.40
2023-04-04T07:09:03.440Z,2.40
2023-04-04T07:11:32.074Z,2.40
2023-04-04T07:14:02.184Z,2.50
2023-04-04T07:16:31.999Z,2.70
2023-04-04T07:19:00.981Z,4.20
2023-04-04T07:21:30.593Z,5.60
2023-04-04T07:24:14.996Z,5.70
2023-04-04T07:27:00.554Z,5.50
2023-04-04T07:29:30.019Z,5.70
2023-04-04T07:31:59.651Z,7.80
2023-04-04T07:34:29.598Z,8.10
2023-04-04T07:37:00.564Z,6.40
2023-04-04T07:39:50.113Z,6.80
2023-04-04T07:42:24.380Z,5.90
2023-04-04T07:45:00.163Z,7.20
2023-04-04T07:47:34.055Z,6.60
2023-04-04T07:50:12.096Z,6.40
2023-04-04T07:52:43.060Z,5.80
2023-04-04T07:55:16.836Z,6.40
2023-04-04T07:57:49.637Z,6.30
2023-04-04T08:00:31.552Z,5.60
2023-04-04T08:03:06.792Z,5.70
2023-04-04T08:05:53.776Z,5.80
2023-04-04T08:08:22.750Z,5.80
2023-04-04T08:10:53.422Z,8.40
2023-04-04T08:13:21.901Z,8.10
2023-04-04T08:15:53.565Z,7.40
2023-04-04T08:18:29.463Z,4.50
2023-04-04T08:20:58.256Z,8.20
2023-04-04T08:23:27.915Z,6.20
2023-04-04T08:29:34.747Z,5.10
2023-04-04T08:32:04.659Z,4.40
2023-04-04T08:38:03.984Z,8.30
2023-04-04T08:40:34.990Z,11.40
2023-04-04T08:43:08.284Z,11.80
2023-04-04T08:48:52.447Z,8.20
2023-04-04T08:51:27.628Z,9.30
2023-04-04T08:54:00.270Z,9.90
2023-04-04T08:56:36.121Z,6.40
2023-04-04T08:59:05.338Z,7.20
2023-04-04T09:01:38.363Z,8.20
2023-04-04T09:04:10.357Z,8.60
2023-04-04T09:06:40.556Z,8.50
2023-04-04T09:09:10.128Z,9.00
2023-04-04T09:11:40.560Z,10.20
2023-04-04T09:14:12.636Z,7.30
2023-04-04T09:16:46.216Z,7.90
2023-04-04T09:19:17.200Z,6.80
2023-04-04T09:21:48.580Z,6.20
2023-04-04T09:24:17.582Z,5.80
2023-04-04T09:26:52.226Z,5.60
2023-04-04T09:31:56.292Z,5.60
2023-04-04T09:37:00.447Z,4.40
2023-04-04T09:39:29.040Z,4.40
2023-04-04T09:41:59.471Z,4.40
2023-04-04T09:44:57.472Z,5.40
2023-04-04T09:47:35.332Z,5.30
2023-04-04T09:50:22.169Z,4.80
2023-04-04T09:53:41.594Z,5.50
2023-04-04T09:56:12.414Z,5.80
2023-04-04T09:59:39.461Z,5.10
2023-04-04T10:02:52.764Z,5.60
2023-04-04T10:05:24.958Z,5.60
2023-04-04T10:07:55.361Z,5.80
2023-04-04T10:10:28.753Z,6.10
2023-04-04T10:13:03.487Z,5.90
2023-04-04T10:19:00.460Z,5.80
2023-04-04T10:22:35.754Z,5.90
2023-04-04T10:25:08.419Z,5.60
2023-04-04T10:27:41.490Z,5.60
2023-04-04T10:30:15.386Z,5.60
2023-04-04T10:32:55.114Z,5.90
2023-04-04T10:35:29.869Z,5.50
2023-04-04T10:41:20.339Z,6.00
2023-04-04T10:43:58.501Z,6.20
2023-04-04T10:46:48.071Z,6.50
2023-04-04T10:49:33.317Z,6.10
2023-04-04T10:52:06.238Z,6.00
2023-04-04T10:54:36.463Z,5.90
2023-04-04T10:57:06.204Z,6.00
2023-04-04T11:03:00.463Z,6.10
2023-04-04T11:05:42.818Z,5.80
2023-04-04T11:08:29.319Z,5.40
2023-04-04T11:11:33.333Z,5.80
2023-04-04T11:14:45.236Z,5.30
2023-04-04T11:17:28.707Z,5.90
2023-04-04T11:20:16.112Z,6.20
2023-04-04T11:22:48.104Z,6.20
2023-04-04T11:36:09.585Z,5.30
2023-04-04T11:38:58.279Z,5.80
2023-04-04T11:42:11.266Z,6.30
2023-04-04T11:44:44.728Z,5.90
2023-04-04T11:50:49.706Z,6.20
2023-04-04T11:53:22.310Z,5.90
2023-04-04T11:56:24.169Z,5.80
2023-04-04T11:59:11.637Z,5.80
2023-04-04T12:01:43.218Z,5.60
2023-04-04T12:04:13.439Z,5.80
2023-04-04T12:06:47.886Z,6.50
2023-04-04T12:09:39.197Z,6.80
2023-04-04T12:12:08.128Z,6.60
2023-04-04T12:14:41.741Z,6.40
2023-04-04T12:17:10.629Z,6.30
2023-04-04T12:19:41.143Z,6.60
2023-04-04T12:22:47.327Z,6.20
2023-04-04T12:25:26.817Z,6.20
2023-04-04T12:27:58.116Z,6.20
2023-04-04T12:33:00.734Z,6.30
2023-04-04T12:35:40.803Z,6.20
2023-04-04T12:38:18.022Z,6.40
2023-04-04T12:40:48.995Z,5.60
2023-04-04T12:46:59.461Z,6.00
2023-04-04T12:50:00.062Z,6.10
2023-04-04T12:53:24.007Z,6.40
2023-04-04T12:59:05.283Z,6.40
2023-04-04T13:01:34.946Z,5.80
2023-04-04T13:04:21.036Z,5.90
2023-04-04T13:06:56.326Z,6.30
2023-04-04T13:09:26.798Z,6.20
2023-04-04T13:12:03.116Z,6.00
2023-04-04T13:15:00.259Z,5.70
2023-04-04T13:17:42.385Z,6.30
2023-04-04T13:20:12.832Z,6.40
2023-04-04T13:22:43.667Z,6.30
2023-04-04T13:25:13.709Z,6.20
2023-04-04T13:28:12.990Z,6.40
2023-04-04T13:33:34.474Z,6.90
2023-04-04T13:41:52.460Z,6.20
2023-04-04T13:44:27.205Z,6.20
2023-04-04T13:47:06.652Z,6.30
2023-04-04T13:49:40.913Z,6.50
2023-04-04T13:52:11.018Z,5.90
2023-04-04T13:54:44.973Z,6.00
2023-04-04T14:00:24.440Z,6.10
2023-04-04T14:03:05.206Z,6.00
2023-04-04T14:05:38.236Z,6.00
2023-04-04T14:08:44.980Z,6.20
2023-04-04T14:11:14.240Z,5.90
2023-04-04T14:13:56.733Z,6.20
2023-04-04T14:16:35.873Z,6.30
2023-04-04T14:19:49.975Z,6.40
2023-04-04T14:22:20.540Z,6.30
2023-04-04T14:24:54.483Z,6.20
2023-04-04T14:27:27.595Z,5.90
2023-04-04T14:30:41.912Z,5.70
2023-04-04T14:33:16.858Z,5.90
2023-04-04T14:35:46.329Z,6.20
2023-04-04T14:38:16.232Z,5.90
2023-04-04T14:40:45.970Z,6.50
2023-04-04T14:43:17.531Z,6.20
2023-04-04T14:45:47.034Z,6.80
2023-04-04T14:48:23.538Z,6.80
2023-04-04T14:50:53.952Z,6.20
2023-04-04T14:53:24.869Z,6.30
2023-04-04T14:55:54.519Z,7.10
2023-04-04T14:58:23.378Z,6.90
2023-04-04T15:00:53.573Z,7.00
2023-04-04T15:05:58.310Z,6.00
2023-04-04T15:09:00.553Z,6.20
2023-04-04T15:11:54.978Z,6.40
2023-04-04T15:14:24.868Z,6.40
2023-04-04T15:16:59.912Z,6.40
2023-04-04T15:19:31.446Z,6.80
2023-04-04T15:22:04.285Z,6.30
2023-04-04T15:24:36.003Z,6.50
2023-04-04T15:27:08.427Z,6.40
2023-04-04T15:29:57.317Z,6.30
2023-04-04T15:35:45.650Z,6.00
2023-04-04T15:38:22.600Z,6.30
2023-04-04T15:44:05.487Z,6.50
2023-04-04T15:46:37.149Z,6.60
2023-04-04T15:49:11.893Z,6.60
2023-04-04T15:51:52.419Z,6.50
2023-04-04T15:54:23.130Z,6.30
2023-04-04T15:57:56.378Z,6.40
2023-04-04T16:03:52.583Z,6.30
2023-04-04T16:07:14.044Z,6.30
2023-04-04T16:09:59.335Z,6.10
2023-04-04T16:16:05.415Z,6.30
2023-04-04T16:19:20.430Z,6.20
2023-04-04T16:25:09.352Z,6.20
2023-04-04T16:27:41.468Z,6.20
2023-04-04T16:31:05.744Z,6.10
2023-04-04T16:33:52.961Z,6.20
2023-04-04T16:36:45.832Z,6.20
2023-04-04T16:39:33.638Z,6.30
2023-04-04T16:42:30.153Z,6.10
2023-04-04T16:45:00.622Z,6.10
2023-04-04T16:47:36.458Z,6.10
2023-04-04T16:50:07.887Z,6.10
2023-04-04T16:52:37.520Z,6.00
2023-04-04T16:55:12.081Z,5.70
2023-04-04T16:58:17.043Z,5.80
2023-04-04T17:01:07.090Z,5.70
2023-04-04T17:03:49.309Z,5.60
2023-04-04T17:10:20.334Z,5.70
2023-04-04T17:12:54.816Z,5.50
2023-04-04T17:15:31.934Z,5.60
2023-04-04T17:18:01.868Z,5.60
2023-04-04T17:20:34.212Z,5.40
2023-04-04T17:23:04.423Z,5.40
2023-04-04T17:25:33.727Z,5.40
2023-04-04T17:28:07.575Z,5.30
2023-04-04T17:30:37.199Z,5.40
2023-04-04T17:33:12.856Z,5.30
2023-04-04T17:35:44.284Z,5.20
2023-04-04T17:38:16.177Z,5.00
2023-04-04T17:40:45.500Z,5.00
2023-04-04T17:43:15.116Z,5.00
2023-04-04T17:45:45.008Z,4.90
2023-04-04T17:48:17.122Z,4.90
2023-04-04T17:50:45.377Z,4.80
2023-04-04T17:53:13.533Z,4.90
2023-04-04T17:56:07.698Z,4.80
2023-04-04T17:58:44.224Z,4.80
2023-04-04T18:01:18.521Z,4.70
2023-04-04T18:04:06.725Z,4.70
2023-04-04T18:09:30.766Z,4.60
2023-04-04T18:12:14.517Z,4.60
2023-04-04T18:15:35.836Z,4.50
2023-04-04T18:18:27.241Z,4.60
2023-04-04T18:21:09.553Z,4.60
2023-04-04T18:23:59.273Z,4.50
2023-04-04T18:26:44.934Z,4.40
2023-04-04T18:29:22.881Z,4.40
2023-04-04T18:32:06.048Z,4.20
2023-04-04T18:34:41.153Z,4.10
2023-04-04T18:37:20.116Z,4.10
2023-04-04T18:39:54.123Z,4.10
2023-04-04T18:42:35.835Z,4.10
2023-04-04T18:45:10.607Z,4.10
2023-04-04T18:47:47.994Z,4.00
2023-04-04T18:50:29.368Z,4.00
2023-04-04T18:53:07.685Z,4.10
2023-04-04T18:55:43.821Z,3.90
2023-04-04T18:58:17.522Z,3.80
2023-04-04T19:01:00.819Z,3.80
2023-04-04T19:03:40.543Z,3.80
2023-04-04T19:06:15.011Z,3.70
2023-04-04T19:08:46.989Z,3.80
2023-04-04T19:11:20.581Z,3.70
2023-04-04T19:13:48.804Z,3.70
2023-04-04T19:16:49.809Z,3.60
2023-04-04T19:33:58.847Z,3.40
2023-04-04T19:37:10.243Z,3.40
2023-04-04T19:39:39.818Z,3.30
2023-04-04T19:42:10.530Z,3.30
2023-04-04T19:44:40.885Z,3.20
2023-04-04T19:47:11.105Z,3.20
2023-04-04T19:49:40.429Z,3.10
2023-04-04T19:52:09.037Z,3.20
2023-04-04T19:54:42.091Z,3.20
2023-04-04T19:57:20.705Z,3.10
2023-04-04T20:00:03.625Z,3.00
2023-04-04T20:02:56.669Z,2.90
2023-04-04T20:05:56.526Z,3.00
2023-04-04T20:08:32.690Z,2.90
2023-04-04T20:11:02.421Z,2.90
2023-04-04T20:13:43.954Z,2.80
2023-04-04T20:16:25.258Z,2.80
2023-04-04T20:22:58.996Z,2.80
2023-04-04T20:25:42.329Z,2.80
2023-04-04T20:28:23.845Z,2.60
2023-04-04T20:30:55.087Z,2.60
2023-04-04T20:33:36.443Z,2.60
2023-04-04T20:36:14.630Z,2.60
2023-04-04T20:38:43.439Z,2.60
2023-04-04T20:41:17.751Z,2.50
2023-04-04T20:43:52.772Z,2.60
2023-04-04T20:46:28.814Z,2.50
2023-04-04T20:48:57.509Z,2.50
2023-04-04T20:51:29.876Z,2.60
2023-04-04T20:54:00.161Z,2.60
2023-04-04T20:56:53.496Z,2.50
2023-04-04T20:59:36.484Z,2.50
2023-04-04T21:02:15.547Z,2.50
2023-04-04T21:04:45.718Z,2.50
2023-04-04T21:07:35.940Z,2.50
2023-04-04T21:10:19.799Z,2.50
2023-04-04T21:12:48.307Z,2.50
2023-04-04T21:15:23.528Z,2.30
2023-04-04T21:17:56.397Z,2.10
2023-04-04T21:21:13.084Z,2.00
2023-04-04T21:23:46.362Z,1.90
2023-04-04T21:26:26.634Z,1.70
2023-04-04T21:28:55.034Z,1.80
2023-04-04T21:31:25.409Z,1.90
2023-04-04T21:33:58.195Z,1.90
2023-04-04T21:36:30.169Z,1.90
2023-04-04T21:38:59.643Z,1.80
2023-04-04T21:41:28.932Z,1.90
2023-04-04T21:43:59.184Z,2.00
2023-04-04T21:46:29.154Z,1.90
2023-04-04T21:48:59.018Z,1.90
2023-04-04T21:51:27.811Z,1.90
2023-04-04T21:53:56.692Z,2.00
2023-04-04T21:56:31.373Z,2.00
2023-04-04T21:59:00.512Z,2.00
2023-04-04T22:01:30.476Z,2.00
2023-04-04T22:04:00.771Z,1.90
2023-04-04T22:06:30.841Z,2.00
2023-04-04T22:09:00.392Z,2.00
2023-04-04T22:11:29.579Z,2.00
2023-04-04T22:14:04.965Z,2.00
2023-04-04T22:16:40.223Z,1.90
2023-04-04T22:19:11.375Z,2.00
2023-04-04T22:21:48.362Z,1.80
2023-04-04T22:24:18.247Z,1.80
2023-04-04T22:26:46.888Z,1.90
2023-04-04T22:29:16.935Z,1.90
2023-04-04T22:31:46.258Z,1.80
2023-04-04T22:34:17.059Z,1.80
2023-04-04T22:36:47.045Z,1.70
2023-04-04T22:39:38.963Z,1.70
2023-04-04T22:42:08.216Z,1.80
2023-04-04T22:44:50.027Z,1.70
2023-04-04T22:47:34.198Z,1.80
2023-04-04T22:50:24.211Z,1.90
2023-04-04T22:53:02.122Z,1.90
2023-04-04T22:55:48.680Z,1.80
2023-04-04T22:58:28.895Z,1.80
2023-04-04T23:01:47.169Z,1.70
2023-04-04T23:04:27.364Z,1.30
2023-04-04T23:06:59.317Z,1.10
2023-04-04T23:13:53.994Z,1.20
2023-04-04T23:16:54.298Z,1.20
2023-04-04T23:19:26.852Z,1.20
2023-04-04T23:21:56.100Z,1.20
2023-04-04T23:24:24.704Z,1.20
2023-04-04T23:26:53.071Z,1.20
2023-04-04T23:29:22.734Z,1.30
2023-04-04T23:31:56.606Z,1.30
2023-04-04T23:34:29.921Z,1.20
2023-04-04T23:37:02.693Z,1.20
2023-04-04T23:39:31.769Z,1.20
2023-04-04T23:42:00.122Z,1.10
2023-04-04T23:44:30.470Z,1.20
2023-04-04T23:46:59.262Z,1.20
2023-04-04T23:49:27.618Z,1.20
2023-04-04T23:51:55.967Z,1.20
2023-04-04T23:54:24.229Z,1.20
2023-04-04T23:56:52.403Z,1.10
2023-04-04T23:59:20.784Z,1.10
